^^
Station Historical Data
Daily Summary for January 16, 2018 Units:  English    Metric   Both
« Previous Day
Next Day »
Daily Weekly Monthly Yearly Custom
  High: Low: Average:
Temperature: TemperatureC °F -8.4 °F -6.6 °F
Dew Point: DewpointC °F -10.4 °F -9.4 °F
Humidity: Humidity% 72% 80%
Wind Speed: WindSpeedKMHmph 0.0mph 7.1mph
Wind Gust: WindSpeedGustKMHmph - -
Wind- - SE
Pressure: PressurehPa in 1002.3 in -
Precipitation: 0.0 in    
Historical Graphs
 
 
Tabular Data for January 16, 2018
Time Temperature Dew Point Pressure Wind Wind Speed Wind Gust Humidity Rainfall Rate (Hourly) solar Conditions
TemperatureC °F DewpointC °F PressurehPa in Calm     Humidity% HourlyPrecipMM in SoftwareType W/m2 Conditions
00:03 -7.5 °F -9.3 °F 1018.2 in South 1.8 mph 6.4 mph 87% 0.0 in WeatherDisplay:10.37 W/m2 FEW
00:08 -7.5 °F -9.3 °F 1017.8 in West 3.4 mph 13.0 mph 87% 0.0 in WeatherDisplay:10.37 W/m2 FEW
00:17 -7.4 °F -9.2 °F 1017.8 in SSE 3.9 mph 7.4 mph 87% 0.0 in WeatherDisplay:10.37 W/m2 FEW
00:22 -7.4 °F -9.4 °F 1017.8 in South 5.1 mph 14.8 mph 86% 0.0 in WeatherDisplay:10.37 W/m2 FEW
00:33 -7.4 °F -9.4 °F 1017.5 in SW 8.4 mph 9.3 mph 86% 0.0 in WeatherDisplay:10.37 W/m2 FEW
00:40 -7.4 °F -9.2 °F 1017.5 in SSE 2.1 mph 18.5 mph 87% 0.0 in WeatherDisplay:10.37 W/m2 FEW
00:45 -7.3 °F -9.3 °F 1017.5 in SSW 2.3 mph 14.8 mph 86% 0.0 in WeatherDisplay:10.37 W/m2 FEW
00:58 -7.3 °F -9.3 °F 1017.2 in East 2.7 mph 9.3 mph 86% 0.0 in WeatherDisplay:10.37 W/m2 FEW
01:07 -7.3 °F -9.3 °F 1017.2 in SSE 5.0 mph 16.7 mph 86% 0.0 in WeatherDisplay:10.37 W/m2 FEW
01:12 -7.3 °F -9.3 °F 1017.2 in SSE 6.3 mph 13.0 mph 86% 0.0 in WeatherDisplay:10.37 W/m2 FEW
01:17 -7.3 °F -9.3 °F 1017.2 in ESE 0.6 mph 3.2 mph 86% 0.0 in WeatherDisplay:10.37 W/m2 FEW
01:22 -7.3 °F -9.3 °F 1016.8 in SSE 9.2 mph 22.2 mph 86% 0.0 in WeatherDisplay:10.37 W/m2 FEW
01:27 -7.4 °F -9.3 °F 1016.8 in SE 8.0 mph 18.5 mph 86% 0.0 in WeatherDisplay:10.37 W/m2 FEW
01:32 -7.4 °F -9.6 °F 1016.8 in NE 4.2 mph 4.8 mph 85% 0.0 in WeatherDisplay:10.37 W/m2 FEW
01:43 -7.4 °F -9.4 °F 1016.5 in ESE 1.6 mph 9.7 mph 86% 0.0 in WeatherDisplay:10.37 W/m2 FEW
01:48 -7.4 °F -9.4 °F 1016.5 in SE 0.3 mph 9.3 mph 86% 0.0 in WeatherDisplay:10.37 W/m2 FEW
01:58 -7.5 °F -9.6 °F 1016.1 in ENE 7.9 mph 18.5 mph 85% 0.0 in WeatherDisplay:10.37 W/m2 FEW
02:05 -7.4 °F -9.6 °F 1016.1 in West 0.5 mph 5.6 mph 85% 0.0 in WeatherDisplay:10.37 W/m2 FEW
02:13 -7.4 °F -9.6 °F 1016.1 in ESE 5.0 mph 5.6 mph 85% 0.0 in WeatherDisplay:10.37 W/m2 FEW
02:21 -7.4 °F -9.6 °F 1015.8 in SSE 10.8 mph 18.5 mph 85% 0.0 in WeatherDisplay:10.37 W/m2 FEW
02:26 -7.4 °F -9.6 °F 1015.8 in SSE 11.1 mph 22.2 mph 85% 0.0 in WeatherDisplay:10.37 W/m2 FEW
02:38 -7.3 °F -9.4 °F 1015.8 in SSE 1.9 mph 9.3 mph 85% 0.0 in WeatherDisplay:10.37 W/m2 FEW
02:43 -7.3 °F -9.4 °F 1015.8 in South 2.3 mph 14.8 mph 85% 0.0 in WeatherDisplay:10.37 W/m2 FEW
02:48 -7.3 °F -9.3 °F 1015.8 in SSE 2.1 mph 16.7 mph 86% 0.0 in WeatherDisplay:10.37 W/m2 FEW
02:53 -7.3 °F -9.3 °F 1015.8 in SE 0.5 mph 5.6 mph 86% 0.0 in WeatherDisplay:10.37 W/m2 FEW
02:58 -7.3 °F -9.3 °F 1015.8 in SSW 4.0 mph 5.6 mph 86% 0.0 in WeatherDisplay:10.37 W/m2 FEW
03:03 -7.3 °F -9.4 °F 1015.5 in SE 8.8 mph 17.7 mph 85% 0.0 in WeatherDisplay:10.37 W/m2 FEW
03:20 -7.4 °F -9.5 °F 1015.5 in SE 1.6 mph 14.8 mph 85% 0.0 in WeatherDisplay:10.37 W/m2 FEW
03:25 -7.4 °F -9.3 °F 1015.1 in SSE 2.4 mph 7.4 mph 86% 0.0 in WeatherDisplay:10.37 W/m2 FEW
03:30 -7.4 °F -9.4 °F 1015.1 in SE 9.8 mph 14.8 mph 86% 0.0 in WeatherDisplay:10.37 W/m2 FEW
03:35 -7.4 °F -9.4 °F 1015.1 in East 5.6 mph 13.0 mph 86% 0.0 in WeatherDisplay:10.37 W/m2 FEW
03:40 -7.4 °F -9.4 °F 1014.8 in SSW 3.9 mph 11.1 mph 86% 0.0 in WeatherDisplay:10.37 W/m2 FEW
03:45 -7.4 °F -9.6 °F 1014.8 in South 3.9 mph 13.0 mph 85% 0.0 in WeatherDisplay:10.37 W/m2 FEW
03:50 -7.5 °F -9.6 °F 1014.8 in SSE 0.3 mph 5.6 mph 85% 0.0 in WeatherDisplay:10.37 W/m2 FEW
03:58 -7.6 °F -9.7 °F 1014.4 in South 6.4 mph 18.5 mph 85% 0.0 in WeatherDisplay:10.37 W/m2 FEW
04:10 -7.6 °F -9.7 °F 1014.4 in SE 7.1 mph 18.5 mph 85% 0.0 in WeatherDisplay:10.37 W/m2 FEW
04:22 -7.7 °F -9.8 °F 1014.4 in SE 6.1 mph 16.7 mph 85% 0.0 in WeatherDisplay:10.37 W/m2 FEW
04:35 -7.8 °F -9.7 °F 1014.1 in ESE 4.7 mph 5.6 mph 86% 0.0 in WeatherDisplay:10.37 W/m2 FEW
04:43 -7.8 °F -9.9 °F 1013.8 in South 2.9 mph 18.5 mph 85% 0.0 in WeatherDisplay:10.37 W/m2 FEW
04:53 -7.9 °F -10.0 °F 1013.8 in SSE 6.6 mph 18.5 mph 85% 0.0 in WeatherDisplay:10.37 W/m2 FEW
04:58 -7.9 °F -9.9 °F 1013.8 in South 2.6 mph 13.0 mph 86% 0.0 in WeatherDisplay:10.37 W/m2 FEW
05:03 -8.0 °F -9.9 °F 1013.4 in SSE 2.3 mph 11.1 mph 86% 0.0 in WeatherDisplay:10.37 W/m2 FEW
05:09 -8.0 °F -9.9 °F 1013.4 in South 9.2 mph 18.5 mph 86% 0.0 in WeatherDisplay:10.37 W/m2 FEW
05:18 -8.1 °F -10.0 °F 1013.4 in East 9.8 mph 18.5 mph 86% 0.0 in WeatherDisplay:10.37 W/m2 FEW
05:27 -8.1 °F -10.1 °F 1013.1 in SE 1.1 mph 8.0 mph 86% 0.0 in WeatherDisplay:10.37 W/m2 FEW
05:38 -8.1 °F -10.1 °F 1012.8 in South 6.1 mph 16.1 mph 86% 0.0 in WeatherDisplay:10.37 W/m2 FEW
05:45 -8.2 °F -10.1 °F 1012.8 in SSW 1.0 mph 11.1 mph 86% 0.0 in WeatherDisplay:10.37 W/m2 FEW
05:50 -8.2 °F -9.9 °F 1012.8 in SSE 1.3 mph 5.6 mph 87% 0.0 in WeatherDisplay:10.37 W/m2 FEW
05:57 -8.2 °F -9.9 °F 1012.8 in ENE 6.9 mph 13.0 mph 87% 0.0 in WeatherDisplay:10.37 W/m2 FEW
06:02 -8.2 °F -9.9 °F 1012.4 in ESE 5.1 mph 6.4 mph 87% 0.0 in WeatherDisplay:10.37 W/m2 FEW
06:11 -8.2 °F -10.0 °F 1012.4 in ENE 5.0 mph 9.3 mph 87% 0.0 in WeatherDisplay:10.37 W/m2 FEW
06:16 -8.2 °F -10.0 °F 1012.4 in ENE 7.4 mph 13.0 mph 87% 0.0 in WeatherDisplay:10.37 W/m2 FEW
06:21 -8.3 °F -10.1 °F 1012.4 in ESE 8.0 mph 19.3 mph 87% 0.0 in WeatherDisplay:10.37 W/m2 FEW
06:26 -8.3 °F -10.1 °F 1012.4 in SSE 8.0 mph 14.8 mph 87% 0.0 in WeatherDisplay:10.37 W/m2 FEW
06:31 -8.3 °F -10.1 °F 1012.4 in SSE 2.3 mph 13.0 mph 87% 0.0 in WeatherDisplay:10.37 W/m2 FEW
06:36 -8.3 °F -10.1 °F 1012.1 in ESE 4.2 mph 11.1 mph 87% 0.0 in WeatherDisplay:10.37 W/m2 FEW
06:47 -8.3 °F -10.1 °F 1012.1 in Calm     87% 0.0 in WeatherDisplay:10.37 W/m2 FEW
07:08 -8.3 °F -10.3 °F 1011.7 in SSE 10.1 mph 16.7 mph 86% 0.0 in WeatherDisplay:10.37 W/m2 FEW
07:13 -8.4 °F -10.3 °F 1011.7 in SSE 6.4 mph 14.8 mph 86% 0.0 in WeatherDisplay:10.37 W/m2 FEW
07:18 -8.4 °F -10.3 °F 1011.4 in SE 12.1 mph 24.1 mph 86% 0.0 in WeatherDisplay:10.37 W/m2 FEW
07:23 -8.4 °F -10.4 °F 1011.4 in ESE 2.1 mph 11.1 mph 85% 0.0 in WeatherDisplay:10.37 W/m2 FEW
07:29 -8.4 °F -10.4 °F 1011.4 in SSE 12.4 mph 24.1 mph 85% 0.0 in WeatherDisplay:10.37 W/m2 FEW
07:37 -8.4 °F -10.4 °F 1011.4 in Calm     85% 0.0 in WeatherDisplay:10.37 W/m2 FEW
07:45 -8.4 °F -10.3 °F 1011.1 in SSW 3.7 mph 9.3 mph 86% 0.0 in WeatherDisplay:10.37 W/m2 FEW
07:50 -8.4 °F -10.3 °F 1011.1 in South 5.5 mph 31.5 mph 86% 0.0 in WeatherDisplay:10.37 W/m2 FEW
07:55 -8.4 °F -10.3 °F 1011.1 in SSE 6.8 mph 18.5 mph 86% 0.0 in WeatherDisplay:10.37 W/m2 FEW
08:02 -8.3 °F -10.3 °F 1011.1 in SSE 5.5 mph 13.0 mph 86% 0.0 in WeatherDisplay:10.37 W/m2 FEW
08:07 -8.4 °F -10.3 °F 1011.1 in SSE 1.8 mph 7.4 mph 86% 0.0 in WeatherDisplay:10.37 W/m2 FEW
08:13 -8.3 °F -10.3 °F 1011.1 in SSE 6.1 mph 14.8 mph 86% 0.0 in WeatherDisplay:10.37 W/m2 FEW
08:20 -8.3 °F -10.3 °F 1011.1 in South 5.0 mph 11.1 mph 86% 0.0 in WeatherDisplay:10.37 W/m2 FEW
08:34 -8.3 °F -10.1 °F 1010.7 in ESE 1.8 mph 13.0 mph 87% 0.0 in WeatherDisplay:10.37 W/m2 FEW
08:43 -8.2 °F -10.0 °F 1010.4 in ENE 6.9 mph 11.1 mph 87% 0.0 in WeatherDisplay:10.37 W/m2 FEW
08:50 -8.2 °F -9.9 °F 1010.4 in South 7.9 mph 16.7 mph 87% 0.0 in WeatherDisplay:10.37 W/m2 FEW
08:56 -8.1 °F -9.9 °F 1010.7 in East 0.8 mph 6.4 mph 87% 0.0 in WeatherDisplay:10.37 W/m2 FEW
09:01 -8.1 °F -9.8 °F 1010.4 in SSE 2.1 mph 4.8 mph 87% 0.0 in WeatherDisplay:10.37 W/m2 FEW
09:08 -7.9 °F -9.7 °F 1010.4 in ESE 5.0 mph 14.8 mph 87% 0.0 in WeatherDisplay:10.37 W/m2 FEW
09:21 -7.7 °F -9.3 °F 1010.0 in SE 7.1 mph 20.4 mph 88% 0.0 in WeatherDisplay:10.37 W/m2 FEW
09:33 -7.5 °F -9.2 °F 1010.0 in SSE 5.6 mph 18.5 mph 88% 0.0 in WeatherDisplay:10.37 W/m2 FEW
09:40 -7.4 °F -9.1 °F 1010.0 in SE 3.2 mph 7.4 mph 88% 0.0 in WeatherDisplay:10.37 W/m2 FEW
09:47 -7.3 °F -9.0 °F 1010.0 in SE 5.0 mph 14.5 mph 88% 0.0 in WeatherDisplay:10.37 W/m2 FEW
09:52 -7.3 °F -8.9 °F 1010.0 in SSE 8.4 mph 20.4 mph 88% 0.0 in WeatherDisplay:10.37 W/m2 FEW
10:02 -7.2 °F -8.7 °F 1010.0 in South 5.0 mph 14.8 mph 89% 0.0 in WeatherDisplay:10.37 W/m2 FEW
10:07 -7.1 °F -8.8 °F 1010.0 in SSE 8.2 mph 14.8 mph 88% 0.0 in WeatherDisplay:10.37 W/m2 FEW
10:12 -7.1 °F -8.8 °F 1010.0 in ESE 5.6 mph 16.7 mph 88% 0.0 in WeatherDisplay:10.37 W/m2 FEW
10:17 -7.2 °F -8.8 °F 1010.0 in SE 4.8 mph 16.1 mph 88% 0.0 in WeatherDisplay:10.37 W/m2 FEW
10:30 -7.3 °F -9.1 °F 1010.0 in SE 7.2 mph 18.5 mph 87% 0.0 in WeatherDisplay:10.37 W/m2 FEW
10:35 -7.3 °F -9.1 °F 1010.0 in WNW 6.9 mph 18.5 mph 87% 0.0 in WeatherDisplay:10.37 W/m2 FEW
10:51 -7.4 °F -9.2 °F 1009.7 in SSE 5.3 mph 11.1 mph 87% 0.0 in WeatherDisplay:10.37 W/m2 FEW
11:04 -7.4 °F -9.2 °F 1009.7 in SSW 0.5 mph 7.4 mph 87% 0.0 in WeatherDisplay:10.37 W/m2 FEW
11:19 -7.2 °F -9.0 °F 1009.7 in South 5.0 mph 6.4 mph 87% 0.0 in WeatherDisplay:10.37 W/m2 FEW
11:24 -7.2 °F -8.8 °F 1009.7 in ESE 5.1 mph 14.8 mph 88% 0.0 in WeatherDisplay:10.37 W/m2 FEW
11:37 -7.2 °F -9.0 °F 1009.4 in SSE 5.1 mph 13.0 mph 87% 0.0 in WeatherDisplay:10.37 W/m2 FEW
11:42 -7.2 °F -9.0 °F 1009.4 in SSW 8.4 mph 9.3 mph 87% 0.0 in WeatherDisplay:10.37 W/m2 FEW
11:52 -7.2 °F -9.2 °F 1009.0 in ESE 12.2 mph 22.2 mph 86% 0.0 in WeatherDisplay:10.37 W/m2 FEW
12:01 -7.3 °F -9.5 °F 1009.0 in SE 9.8 mph 14.8 mph 84% 0.0 in WeatherDisplay:10.37 W/m2 FEW
12:06 -7.3 °F -9.7 °F 1009.0 in SSE 8.4 mph 14.8 mph 83% 0.0 in WeatherDisplay:10.37 W/m2 FEW
12:11 -7.3 °F -9.7 °F 1008.7 in West 10.8 mph 16.7 mph 83% 0.0 in WeatherDisplay:10.37 W/m2 FEW
12:16 -7.3 °F -9.8 °F 1008.7 in SE 6.4 mph 18.5 mph 82% 0.0 in WeatherDisplay:10.37 W/m2 FEW
12:21 -7.2 °F -9.8 °F 1008.7 in South 15.3 mph 18.5 mph 82% 0.0 in WeatherDisplay:10.37 W/m2 FEW
12:30 -7.1 °F -9.8 °F 1008.4 in East 13.5 mph 24.1 mph 81% 0.0 in WeatherDisplay:10.37 W/m2 FEW
12:43 -6.8 °F -9.6 °F 1008.4 in SSE 9.7 mph 18.5 mph 81% 0.0 in WeatherDisplay:10.37 W/m2 FEW
12:48 -6.8 °F -9.5 °F 1008.0 in ESE 6.0 mph 9.3 mph 81% 0.0 in WeatherDisplay:10.37 W/m2 FEW
12:53 -6.7 °F -9.4 °F 1008.0 in West 6.8 mph 31.5 mph 81% 0.0 in WeatherDisplay:10.37 W/m2 FEW
12:58 -6.7 °F -9.4 °F 1007.7 in South 9.8 mph 18.5 mph 81% 0.0 in WeatherDisplay:10.37 W/m2 FEW
13:07 -6.6 °F -9.4 °F 1007.7 in SE 10.8 mph 20.9 mph 80% 0.0 in WeatherDisplay:10.37 W/m2 FEW
13:15 -6.4 °F -9.3 °F 1007.3 in SE 9.5 mph 16.7 mph 80% 0.0 in WeatherDisplay:10.37 W/m2 FEW
13:20 -6.4 °F -9.3 °F 1007.3 in ESE 9.7 mph 29.6 mph 80% 0.0 in WeatherDisplay:10.37 W/m2 FEW
13:25 -6.3 °F -9.2 °F 1007.3 in SE 5.1 mph 17.7 mph 80% 0.0 in WeatherDisplay:10.37 W/m2 FEW
13:32 -6.2 °F -9.1 °F 1007.0 in SE 10.1 mph 24.1 mph 80% 0.0 in WeatherDisplay:10.37 W/m2 FEW
13:37 -6.2 °F -9.1 °F 1007.0 in SSE 5.3 mph 11.1 mph 80% 0.0 in WeatherDisplay:10.37 W/m2 FEW
13:47 -5.9 °F -9.0 °F 1007.0 in SE 10.8 mph 22.2 mph 79% 0.0 in WeatherDisplay:10.37 W/m2 FEW
14:00 -5.8 °F -9.2 °F 1006.7 in SE 9.5 mph 20.4 mph 77% 0.0 in WeatherDisplay:10.37 W/m2 FEW
14:10 -5.7 °F -9.1 °F 1006.7 in SE 11.4 mph 24.1 mph 77% 0.0 in WeatherDisplay:10.37 W/m2 FEW
14:15 -5.7 °F -9.1 °F 1006.7 in ESE 12.7 mph 20.4 mph 77% 0.0 in WeatherDisplay:10.37 W/m2 FEW
14:21 -5.7 °F -9.1 °F 1006.7 in SSE 11.7 mph 22.2 mph 77% 0.0 in WeatherDisplay:10.37 W/m2 FEW
14:28 -5.6 °F -9.0 °F 1006.7 in SE 12.6 mph 22.2 mph 77% 0.0 in WeatherDisplay:10.37 W/m2 FEW
14:34 -5.7 °F -9.1 °F 1006.3 in ESE 9.7 mph 18.5 mph 77% 0.0 in WeatherDisplay:10.37 W/m2 FEW
14:39 -5.6 °F -9.2 °F 1006.3 in South 12.6 mph 27.8 mph 76% 0.0 in WeatherDisplay:10.37 W/m2 FEW
14:46 -5.5 °F -9.1 °F 1006.3 in SE 14.5 mph 32.2 mph 76% 0.0 in WeatherDisplay:10.37 W/m2 FEW
14:51 -5.5 °F -9.1 °F 1006.0 in SE 6.8 mph 16.1 mph 76% 0.0 in WeatherDisplay:10.37 W/m2 FEW
14:57 -5.6 °F -9.1 °F 1006.3 in ENE 11.3 mph 22.5 mph 76% 0.0 in WeatherDisplay:10.37 W/m2 FEW
15:03 -5.5 °F -9.2 °F 1006.0 in South 8.0 mph 16.1 mph 75% 0.0 in WeatherDisplay:10.37 W/m2 FEW
15:08 -5.4 °F -9.2 °F 1006.0 in ESE 7.2 mph 14.8 mph 75% 0.0 in WeatherDisplay:10.37 W/m2 FEW
15:13 -5.5 °F -9.2 °F 1006.0 in East 8.5 mph 14.8 mph 75% 0.0 in WeatherDisplay:10.37 W/m2 FEW
15:18 -5.5 °F -9.2 °F 1006.0 in East 7.4 mph 11.1 mph 75% 0.0 in WeatherDisplay:10.37 W/m2 FEW
15:23 -5.5 °F -9.2 °F 1005.6 in East 7.2 mph 11.1 mph 75% 0.0 in WeatherDisplay:10.37 W/m2 FEW
15:35 -5.5 °F -9.2 °F 1005.6 in ESE 6.9 mph 37.0 mph 75% 0.0 in WeatherDisplay:10.37 W/m2 FEW
15:42 -5.5 °F -9.1 °F 1005.6 in SE 5.8 mph 11.1 mph 76% 0.0 in WeatherDisplay:10.37 W/m2 FEW
15:51 -5.7 °F -9.2 °F 1005.3 in SE 7.7 mph 18.5 mph 76% 0.0 in WeatherDisplay:10.37 W/m2 FEW
15:56 -5.7 °F -9.2 °F 1005.3 in SE 13.4 mph 19.3 mph 76% 0.0 in WeatherDisplay:10.37 W/m2 FEW
16:01 -5.7 °F -9.2 °F 1005.3 in ESE 10.0 mph 18.5 mph 76% 0.0 in WeatherDisplay:10.37 W/m2 FEW
16:08 -5.7 °F -9.3 °F 1005.3 in SSW 4.3 mph 5.6 mph 76% 0.0 in WeatherDisplay:10.37 W/m2 FEW
16:13 -5.7 °F -9.1 °F 1005.3 in SE 5.1 mph 14.8 mph 77% 0.0 in WeatherDisplay:10.37 W/m2 FEW
16:23 -5.7 °F -9.1 °F 1005.3 in South 8.8 mph 18.5 mph 77% 0.0 in WeatherDisplay:10.37 W/m2 FEW
16:28 -5.7 °F -9.1 °F 1005.0 in ESE 7.1 mph 24.1 mph 77% 0.0 in WeatherDisplay:10.37 W/m2 FEW
16:34 -5.7 °F -9.1 °F 1005.3 in SSE 6.8 mph 14.8 mph 77% 0.0 in WeatherDisplay:10.37 W/m2 FEW
16:43 -5.7 °F -9.1 °F 1005.3 in SSE 7.4 mph 14.8 mph 77% 0.0 in WeatherDisplay:10.37 W/m2 FEW
16:50 -5.7 °F -9.1 °F 1005.0 in SE 10.5 mph 18.5 mph 77% 0.0 in WeatherDisplay:10.37 W/m2 FEW
16:55 -5.6 °F -9.0 °F 1005.3 in East 6.8 mph 18.5 mph 77% 0.0 in WeatherDisplay:10.37 W/m2 FEW
17:00 -5.6 °F -9.1 °F 1005.0 in SE 15.0 mph 25.9 mph 76% 0.0 in WeatherDisplay:10.37 W/m2 FEW
17:05 -5.6 °F -9.1 °F 1005.0 in South 6.4 mph 6.4 mph 76% 0.0 in WeatherDisplay:10.37 W/m2 FEW
17:10 -5.7 °F -9.2 °F 1005.0 in ESE 4.8 mph 14.8 mph 76% 0.0 in WeatherDisplay:10.37 W/m2 FEW
17:15 -5.7 °F -9.2 °F 1005.0 in SSE 10.3 mph 14.8 mph 76% 0.0 in WeatherDisplay:10.37 W/m2 FEW
17:20 -5.7 °F -9.2 °F 1005.3 in South 12.6 mph 20.4 mph 76% 0.0 in WeatherDisplay:10.37 W/m2 FEW
17:25 -5.7 °F -9.2 °F 1005.0 in SE 5.6 mph 7.4 mph 76% 0.0 in WeatherDisplay:10.37 W/m2 FEW
17:34 -5.6 °F -9.2 °F 1005.0 in SE 13.7 mph 22.5 mph 76% 0.0 in WeatherDisplay:10.37 W/m2 FEW
17:39 -5.6 °F -9.3 °F 1005.0 in ESE 6.3 mph 16.7 mph 75% 0.0 in WeatherDisplay:10.37 W/m2 FEW
17:45 -5.6 °F -9.3 °F 1004.6 in ENE 7.6 mph 31.5 mph 75% 0.0 in WeatherDisplay:10.37 W/m2 FEW
17:50 -5.6 °F -9.3 °F 1005.0 in SE 15.4 mph 16.7 mph 75% 0.0 in WeatherDisplay:10.37 W/m2 FEW
17:55 -5.5 °F -9.2 °F 1004.6 in SE 10.0 mph 18.5 mph 75% 0.0 in WeatherDisplay:10.37 W/m2 FEW
18:01 -5.5 °F -9.2 °F 1004.6 in ENE 9.7 mph 22.2 mph 75% 0.0 in WeatherDisplay:10.37 W/m2 FEW
18:06 -5.6 °F -9.3 °F 1004.6 in ESE 0.5 mph 11.1 mph 75% 0.0 in WeatherDisplay:10.37 W/m2 FEW
18:17 -5.5 °F -9.4 °F 1004.6 in NE 17.5 mph 29.6 mph 74% 0.0 in WeatherDisplay:10.37 W/m2 FEW
18:24 -5.4 °F -9.3 °F 1004.3 in ENE 9.2 mph 18.5 mph 74% 0.0 in WeatherDisplay:10.37 W/m2 FEW
18:29 -5.4 °F -9.3 °F 1004.6 in ESE 8.8 mph 27.8 mph 74% 0.0 in WeatherDisplay:10.37 W/m2 FEW
18:36 -5.4 °F -9.2 °F 1004.3 in East 6.0 mph 19.3 mph 75% 0.0 in WeatherDisplay:10.37 W/m2 FEW
18:52 -5.4 °F -9.3 °F 1004.3 in SE 7.4 mph 20.4 mph 74% 0.0 in WeatherDisplay:10.37 W/m2 FEW
19:03 -5.5 °F -9.2 °F 1004.3 in ESE 9.2 mph 16.7 mph 75% 0.0 in WeatherDisplay:10.37 W/m2 FEW
19:10 -5.5 °F -9.2 °F 1004.3 in South 7.4 mph 22.2 mph 75% 0.0 in WeatherDisplay:10.37 W/m2 FEW
19:18 -5.4 °F -9.2 °F 1003.9 in WSW 6.0 mph 14.8 mph 75% 0.0 in WeatherDisplay:10.37 W/m2 FEW
19:28 -5.4 °F -9.2 °F 1003.9 in SE 9.7 mph 24.1 mph 75% 0.0 in WeatherDisplay:10.37 W/m2 FEW
19:33 -5.4 °F -9.2 °F 1003.9 in East 15.6 mph 27.8 mph 75% 0.0 in WeatherDisplay:10.37 W/m2 FEW
19:40 -5.4 °F -9.3 °F 1003.9 in South 9.0 mph 16.7 mph 74% 0.0 in WeatherDisplay:10.37 W/m2 FEW
19:45 -5.4 °F -9.3 °F 1003.9 in ESE 6.8 mph 13.0 mph 74% 0.0 in WeatherDisplay:10.37 W/m2 FEW
19:57 -5.4 °F -9.3 °F 1003.9 in SE 13.7 mph 22.2 mph 74% 0.0 in WeatherDisplay:10.37 W/m2 FEW
20:03 -5.4 °F -9.3 °F 1003.9 in South 9.0 mph 18.5 mph 74% 0.0 in WeatherDisplay:10.37 W/m2 FEW
20:08 -5.4 °F -9.3 °F 1003.9 in ESE 11.6 mph 14.5 mph 74% 0.0 in WeatherDisplay:10.37 W/m2 FEW
20:17 -5.4 °F -9.3 °F 1003.9 in SSE 6.1 mph 9.3 mph 74% 0.0 in WeatherDisplay:10.37 W/m2 FEW
20:22 -5.4 °F -9.3 °F 1003.9 in ENE 8.2 mph 20.4 mph 74% 0.0 in WeatherDisplay:10.37 W/m2 FEW
20:28 -5.4 °F -9.3 °F 1003.9 in ESE 5.6 mph 18.5 mph 74% 0.0 in WeatherDisplay:10.37 W/m2 FEW
20:34 -5.4 °F -9.3 °F 1003.9 in East 9.3 mph 14.8 mph 74% 0.0 in WeatherDisplay:10.37 W/m2 FEW
20:44 -5.4 °F -9.3 °F 1003.6 in East 5.1 mph 11.1 mph 74% 0.0 in WeatherDisplay:10.37 W/m2 FEW
20:50 -5.4 °F -9.3 °F 1003.9 in East 4.8 mph 14.8 mph 74% 0.0 in WeatherDisplay:10.37 W/m2 FEW
20:55 -5.4 °F -9.3 °F 1003.9 in ESE 8.5 mph 18.5 mph 74% 0.0 in WeatherDisplay:10.37 W/m2 FEW
21:03 -5.4 °F -9.3 °F 1003.6 in South 7.6 mph 25.9 mph 74% 0.0 in WeatherDisplay:10.37 W/m2 FEW
21:08 -5.4 °F -9.3 °F 1003.6 in South 5.0 mph 14.8 mph 74% 0.0 in WeatherDisplay:10.37 W/m2 FEW
21:13 -5.4 °F -9.4 °F 1003.6 in SW 7.2 mph 18.5 mph 73% 0.0 in WeatherDisplay:10.37 W/m2 FEW
21:21 -5.4 °F -9.4 °F 1003.6 in NE 4.3 mph 14.8 mph 73% 0.0 in WeatherDisplay:10.37 W/m2 FEW
21:26 -5.4 °F -9.4 °F 1003.6 in SE 5.6 mph 9.3 mph 73% 0.0 in WeatherDisplay:10.37 W/m2 FEW
21:34 -5.4 °F -9.4 °F 1003.6 in East 16.1 mph 24.1 mph 73% 0.0 in WeatherDisplay:10.37 W/m2 FEW
21:44 -5.3 °F -9.6 °F 1003.3 in SE 12.2 mph 20.4 mph 72% 0.0 in WeatherDisplay:10.37 W/m2 FEW
21:49 -5.2 °F -9.5 °F 1003.3 in SE 8.8 mph 16.7 mph 72% 0.0 in WeatherDisplay:10.37 W/m2 FEW
21:56 -5.2 °F -9.5 °F 1003.3 in South 7.6 mph 11.1 mph 72% 0.0 in WeatherDisplay:10.37 W/m2 FEW
22:05 -5.2 °F -9.5 °F 1003.3 in SSE 9.8 mph 24.1 mph 72% 0.0 in WeatherDisplay:10.37 W/m2 FEW
22:10 -5.2 °F -9.5 °F 1003.3 in SSW 6.4 mph 13.0 mph 72% 0.0 in WeatherDisplay:10.37 W/m2 FEW
22:18 -5.3 °F -9.6 °F 1003.3 in ESE 8.4 mph 22.2 mph 72% 0.0 in WeatherDisplay:10.37 W/m2 FEW
22:29 -5.3 °F -9.4 °F 1002.9 in East 10.3 mph 18.5 mph 73% 0.0 in WeatherDisplay:10.37 W/m2 FEW
22:36 -5.3 °F -9.2 °F 1002.9 in SE 6.9 mph 18.5 mph 74% 0.0 in WeatherDisplay:10.37 W/m2 FEW
22:41 -5.3 °F -9.2 °F 1002.9 in ENE 7.9 mph 18.5 mph 74% 0.0 in WeatherDisplay:10.37 W/m2 FEW
22:46 -5.3 °F -9.2 °F 1002.9 in ESE 5.5 mph 11.1 mph 74% 0.0 in WeatherDisplay:10.37 W/m2 FEW
22:51 -5.4 °F -9.3 °F 1002.9 in ENE 10.8 mph 18.5 mph 74% 0.0 in WeatherDisplay:10.37 W/m2 FEW
23:05 -5.4 °F -9.4 °F 1002.9 in SE 7.6 mph 13.0 mph 73% 0.0 in WeatherDisplay:10.37 W/m2 FEW
23:17 -5.5 °F -9.4 °F 1002.9 in ENE 6.0 mph 20.4 mph 74% 0.0 in WeatherDisplay:10.37 W/m2 FEW
23:18 -5.5 °F -9.4 °F 1002.9 in SE 10.5 mph 18.5 mph 74% 0.0 in WeatherDisplay:10.37 W/m2 FEW
23:24 -5.6 °F -9.4 °F 1002.9 in ESE 9.0 mph 14.8 mph 74% 0.0 in WeatherDisplay:10.37 W/m2 FEW
23:29 -5.6 °F -9.5 °F 1002.6 in NE 9.7 mph 14.8 mph 74% 0.0 in WeatherDisplay:10.37 W/m2 FEW
23:36 -5.7 °F -9.6 °F 1002.6 in East 13.7 mph 27.8 mph 74% 0.0 in WeatherDisplay:10.37 W/m2 FEW
23:43 -5.8 °F -9.7 °F 1002.6 in South 9.7 mph 18.5 mph 74% 0.0 in WeatherDisplay:10.37 W/m2 FEW
23:48 -5.8 °F -9.7 °F 1002.6 in NE 9.2 mph 18.5 mph 74% 0.0 in WeatherDisplay:10.37 W/m2 FEW
23:53 -5.8 °F -9.7 °F 1002.6 in ENE 10.5 mph 16.7 mph 74% 0.0 in WeatherDisplay:10.37 W/m2 FEW
23:59 -5.9 °F -9.9 °F 1002.3 in ESE 12.9 mph 18.5 mph 73% 0.0 in WeatherDisplay:10.37 W/m2 FEW
Tuulensuunkaari, Veikkola, Suomi
Compliments of Weather Underground - 2.25 mb